Latest Weather Observations for Hillarys Point Boat Harbour

IDW60901

Issued at 10:41 pm WST Sunday 15 September 2019 (issued every 10 minutes, with the page automatically refreshed every 10 minutes)

About weather observations | Map of Perth area stations | Latest observations for Perth area | Other Formats
Station Details ID: 009265 Name: HILLARYS BOAT HARBOUR NTC AWS Lat: -31.83 Lon: 115.74 Height: 0.0 m
Data from the previous 72 hours. | See also: Recent months for locations in Western Australia
Date/Time
WST
Temp
°C
App
Temp
°C
Dew
Point
°C
Rel
Hum
%
Delta-T
°C
Wind Press
QNH
hPa
Press
MSL
hPa
Rain since
9am
mm
Dir  Spd
km/h
Gust
km/h
Spd
kts
Gust
kts
15/10:30pm 16.7 - - - - SE 2 6 1 3 1021.6 1021.6 -
15/10:00pm 17.1 - - - - SSE 2 6 1 3 1021.9 1021.9 -
15/09:30pm 17.2 - - - - SE 2 6 1 3 1021.9 1021.9 -
15/09:00pm 17.8 - - - - SSE 6 11 3 6 1022.2 1022.2 -
15/08:30pm 18.1 - - - - S 6 13 3 7 1022.3 1022.3 -
15/08:00pm 18.1 - - - - SSW 6 15 3 8 1022.4 1022.4 -
15/07:30pm 18.1 - - - - SSW 6 15 3 8 1022.3 1022.3 -
15/07:00pm 18.0 - - - - S 6 20 3 11 1021.6 1021.6 -
15/06:30pm 18.0 - - - - S 6 15 3 8 1021.7 1021.7 -
15/06:00pm 18.0 - - - - SSW 6 19 3 10 1021.6 1021.6 -
15/05:30pm 18.0 - - - - SSW 7 19 4 10 1021.5 1021.5 -
15/05:00pm 18.2 - - - - SSW 7 20 4 11 1021.5 1021.5 -
15/04:30pm 18.2 - - - - SSW 9 19 5 10 1021.5 1021.5 -
15/04:00pm 18.1 - - - - SSW 13 26 7 14 1021.7 1021.7 -
15/03:30pm 18.1 - - - - SSW 13 26 7 14 1021.9 1021.9 -
15/03:00pm 18.1 - - - - SSW 13 24 7 13 1022.1 1022.1 -
15/02:30pm 18.4 - - - - SSW 11 22 6 12 1022.4 1022.4 -
15/02:00pm 18.1 - - - - SW 13 24 7 13 1022.6 1022.6 -
15/01:30pm 18.2 - - - - SW 15 22 8 12 1022.7 1022.7 -
15/01:00pm 17.9 - - - - SSW 11 20 6 11 1022.9 1022.9 -
15/12:30pm 18.1 - - - - SW 13 20 7 11 1023.2 1023.2 -
15/12:00pm 17.9 - - - - SW 11 20 6 11 1023.5 1023.5 -
15/11:30am 17.6 - - - - SW 15 24 8 13 1023.9 1023.9 -
15/11:00am 17.6 - - - - SSW 11 20 6 11 1024.0 1024.0 -
15/10:30am 17.3 - - - - SSW 11 19 6 10 1024.1 1024.1 -
15/10:00am 17.3 - - - - SSW 9 17 5 9 1024.4 1024.4 -
15/09:30am 16.9 - - - - SW 9 15 5 8 1024.5 1024.5 -
15/09:00am 16.8 - - - - SSW 6 11 3 6 1024.5 1024.5 -
15/08:30am 16.6 - - - - S 6 13 3 7 1024.6 1024.6 -
15/08:00am 15.9 - - - - SSE 9 17 5 9 1024.5 1024.5 -
15/07:30am 15.6 - - - - S 9 19 5 10 1024.4 1024.4 -
15/07:00am 15.1 - - - - SSE 6 13 3 7 1023.9 1023.9 -
15/06:30am 14.4 - - - - ESE 2 6 1 3 1023.8 1023.8 -
15/06:00am 14.4 - - - - E 2 4 1 2 1023.4 1023.4 -
15/05:30am 14.9 - - - - SE 2 7 1 4 1023.2 1023.2 -
15/05:00am 15.5 - - - - SSE 7 15 4 8 1022.9 1022.9 -
15/04:30am 15.6 - - - - SSE 11 20 6 11 1022.7 1022.7 -
15/04:00am 15.8 - - - - SSE 11 24 6 13 1022.7 1022.7 -
15/03:30am 16.3 - - - - S 9 24 5 13 1022.5 1022.5 -
15/03:00am 16.5 - - - - S 11 28 6 15 1022.8 1022.8 -
15/02:30am 16.5 - - - - SSE 11 24 6 13 1022.7 1022.7 -
15/02:00am 16.6 - - - - SSE 9 19 5 10 1022.7 1022.7 -
15/01:30am 16.9 - - - - SSE 15 30 8 16 1022.8 1022.8 -
15/01:00am 17.2 - - - - S 9 22 5 12 1022.8 1022.8 -
15/12:30am 17.3 - - - - SSE 9 17 5 9 1022.8 1022.8 -
15/12:00am 17.8 - - - - S 7 20 4 11 1022.8 1022.8 -
 
Date/Time
WST
Temp
°C
App
Temp
°C
Dew
Point
°C
Rel
Hum
%
Delta-T
°C
Wind Press
QNH
hPa
Press
MSL
hPa
Rain since
9am
mm
Dir  Spd
km/h
Gust
km/h
Spd
kts
Gust
kts
14/11:30pm 17.8 - - - - S 7 19 4 10 1022.7 1022.7 -
14/11:00pm 17.6 - - - - S 6 15 3 8 1022.4 1022.4 -
14/10:30pm 18.0 - - - - S 9 24 5 13 1022.5 1022.5 -
14/10:00pm 18.1 - - - - S 7 20 4 11 1023.1 1023.1 -
14/09:30pm 18.3 - - - - SSW 7 22 4 12 1023.4 1023.4 -
14/09:00pm 18.4 - - - - SSW 9 22 5 12 1023.7 1023.7 -
14/08:30pm 18.6 - - - - SSW 9 20 5 11 1023.4 1023.4 -
14/08:00pm 18.7 - - - - SSW 7 17 4 9 1022.9 1022.9 -
14/07:30pm 18.7 - - - - SSW 6 19 3 10 1022.6 1022.6 -
14/07:00pm 18.7 - - - - SSW 7 19 4 10 1022.2 1022.2 -
14/06:30pm 18.9 - - - - SSW 9 28 5 15 1021.9 1021.9 -
14/06:00pm 19.0 - - - - SSW 6 15 3 8 1021.6 1021.6 -
14/05:30pm 19.1 - - - - SSW 6 13 3 7 1021.2 1021.2 -
14/05:00pm 19.6 - - - - SSW 6 15 3 8 1021.4 1021.4 -
14/04:30pm 19.9 - - - - SSW 7 15 4 8 1021.4 1021.4 -
14/04:00pm 19.4 - - - - SSW 11 20 6 11 1021.3 1021.3 -
14/03:30pm 19.5 - - - - SSW 7 17 4 9 1021.2 1021.2 -
14/03:00pm 20.0 - - - - SSW 7 19 4 10 1021.4 1021.4 -
14/02:30pm 20.9 - - - - SSW 9 17 5 9 1021.3 1021.3 -
14/02:00pm 20.5 - - - - SW 11 15 6 8 1021.6 1021.6 -
14/01:30pm 20.1 - - - - SW 7 11 4 6 1021.8 1021.8 -
14/01:00pm 20.5 - - - - SW 6 13 3 7 1021.9 1021.9 -
14/12:30pm 20.2 - - - - SW 6 9 3 5 1022.3 1022.3 -
14/12:00pm 20.1 - - - - SW 7 11 4 6 1022.6 1022.6 -
14/11:30am 19.1 - - - - WSW 7 9 4 5 1022.8 1022.8 -
14/11:00am 19.4 - - - - WSW 4 6 2 3 1022.9 1022.9 -
14/10:30am 19.2 - - - - WSW 4 7 2 4 1023.4 1023.4 -
14/10:00am 19.1 - - - - WSW 4 6 2 3 1023.7 1023.7 -
14/09:30am 18.9 - - - - WSW 4 6 2 3 1023.6 1023.6 -
14/09:00am 18.7 - - - - WNW 2 6 1 3 1023.4 1023.4 -
14/08:30am 18.1 - - - - WSW 6 7 3 4 1023.3 1023.3 -
14/08:00am 20.0 - - - - NE 2 4 1 2 1022.9 1022.9 -
14/07:30am 18.2 - - - - NE 2 6 1 3 1022.5 1022.5 -
14/07:00am 16.7 - - - - NE 4 7 2 4 1022.0 1022.0 -
14/06:30am 16.6 - - - - NE 6 7 3 4 1021.8 1021.8 -
14/06:00am 17.4 - - - - SSW 2 6 1 3 1021.8 1021.8 -
14/05:30am 17.0 - - - - ENE 6 7 3 4 1021.6 1021.6 -
14/05:00am 17.3 - - - - NE 4 9 2 5 1021.6 1021.6 -
14/04:30am 17.7 - - - - NE 4 9 2 5 1021.4 1021.4 -
14/04:00am 18.5 - - - - SSE 2 7 1 4 1021.0 1021.0 -
14/03:30am 18.5 - - - - WSW 6 9 3 5 1021.0 1021.0 -
14/03:00am 18.0 - - - - CALM 0 2 0 1 1020.9 1020.9 -
14/02:30am 18.2 - - - - CALM 0 2 0 1 1020.6 1020.6 -
14/02:00am 18.0 - - - - CALM 0 4 0 2 1020.4 1020.4 -
14/01:30am 18.0 - - - - ENE 4 6 2 3 1020.5 1020.5 -
14/01:00am 18.1 - - - - SSW 2 4 1 2 1021.1 1021.1 -
14/12:30am 18.0 - - - - ENE 6 9 3 5 1021.1 1021.1 -
14/12:00am 18.1 - - - - ENE 4 7 2 4 1021.3 1021.3 -
 
Date/Time
WST
Temp
°C
App
Temp
°C
Dew
Point
°C
Rel
Hum
%
Delta-T
°C
Wind Press
QNH
hPa
Press
MSL
hPa
Rain since
9am
mm
Dir  Spd
km/h
Gust
km/h
Spd
kts
Gust
kts
13/11:30pm 18.2 - - - - SE 2 4 1 2 1021.6 1021.6 -
13/11:00pm 18.2 - - - - E 2 6 1 3 1022.0 1022.0 -
13/10:30pm 18.7 - - - - SSE 4 7 2 4 1022.3 1022.3 -
13/10:00pm 18.5 - - - - S 2 6 1 3 1022.3 1022.3 -
13/09:30pm 18.7 - - - - S 4 7 2 4 1022.2 1022.2 -
13/09:00pm 18.8 - - - - S 4 7 2 4 1022.2 1022.2 -
13/08:30pm 18.9 - - - - S 4 7 2 4 1022.3 1022.3 -
13/08:00pm 19.0 - - - - S 2 9 1 5 1022.2 1022.2 -
13/07:30pm 19.1 - - - - SSW 4 9 2 5 1021.9 1021.9 -
13/07:00pm 19.2 - - - - SSW 6 9 3 5 1021.6 1021.6 -
13/06:30pm 19.3 - - - - SSW 6 9 3 5 1021.1 1021.1 -
13/06:00pm 19.4 - - - - SSW 4 9 2 5 1020.7 1020.7 -
13/05:30pm 19.9 - - - - SSW 4 9 2 5 1020.7 1020.7 -
13/05:00pm 20.1 - - - - SSW 6 11 3 6 1020.7 1020.7 -
13/04:30pm 20.2 - - - - SW 7 17 4 9 1020.8 1020.8 -
13/04:00pm 20.8 - - - - S 4 7 2 4 1020.2 1020.2 -
13/03:30pm 20.7 - - - - S 4 9 2 5 1020.6 1020.6 -
13/03:00pm 20.3 - - - - SW 7 11 4 6 1020.8 1020.8 -
13/02:30pm 20.5 - - - - SW 7 13 4 7 1021.0 1021.0 -
13/02:00pm 20.6 - - - - SW 9 15 5 8 1021.3 1021.3 -
13/01:30pm 20.3 - - - - SW 7 9 4 5 1021.3 1021.3 -
13/01:00pm 20.1 - - - - SW 9 13 5 7 1021.7 1021.7 -
13/12:30pm 19.9 - - - - SW 7 11 4 6 1022.0 1022.0 -
13/12:00pm 19.1 - - - - WSW 7 11 4 6 1022.3 1022.3 -
13/11:30am 18.9 - - - - WSW 9 15 5 8 1022.5 1022.5 -
13/11:00am 18.8 - - - - WSW 11 15 6 8 1022.8 1022.8 -
13/10:30am 19.0 - - - - SW 7 11 4 6 1022.8 1022.8 -
13/10:00am 18.8 - - - - SW 6 9 3 5 1023.0 1023.0 -
13/09:30am 18.6 - - - - S 6 9 3 5 1023.2 1023.2 -
13/09:00am 18.1 - - - - SSE 6 9 3 5 1023.4 1023.4 -
13/08:30am 17.4 - - - - SSW 4 7 2 4 1023.5 1023.5 -
13/08:00am 16.6 - - - - S 4 6 2 3 1023.5 1023.5 -
13/07:30am 16.1 - - - - SE 2 6 1 3 1023.2 1023.2 -
13/07:00am 15.5 - - - - ENE 2 4 1 2 1023.2 1023.2 -
13/06:30am 15.4 - - - - CALM 0 2 0 1 1023.0 1023.0 -
13/06:00am 15.4 - - - - CALM 0 2 0 1 1022.7 1022.7 -
13/05:30am 15.3 - - - - NE 2 6 1 3 1022.7 1022.7 -
13/05:00am 15.4 - - - - NE 6 9 3 5 1022.3 1022.3 -
13/04:30am 15.7 - - - - ENE 7 11 4 6 1022.0 1022.0 -
13/04:00am 15.9 - - - - NE 6 13 3 7 1022.0 1022.0 -
13/03:30am 15.7 - - - - NE 6 11 3 6 1022.0 1022.0 -
13/03:00am 16.0 - - - - NNE 4 6 2 3 1022.0 1022.0 -
13/02:30am 16.3 - - - - ENE 9 11 5 6 1022.1 1022.1 -
13/02:00am 16.6 - - - - ENE 4 6 2 3 1022.3 1022.3 -
13/01:30am 16.9 - - - - ENE 4 7 2 4 1022.7 1022.7 -
13/01:00am 16.9 - - - - ENE 4 6 2 3 1022.9 1022.9 -
13/12:30am 17.1 - - - - NE 2 4 1 2 1023.3 1023.3 -
13/12:00am 17.3 - - - - ENE 4 6 2 3 1023.5 1023.5 -
 
Date/Time
WST
Temp
°C
App
Temp
°C
Dew
Point
°C
Rel
Hum
%
Delta-T
°C
Wind Press
QNH
hPa
Press
MSL
hPa
Rain since
9am
mm
Dir  Spd
km/h
Gust
km/h
Spd
kts
Gust
kts
12/11:30pm 17.7 - - - - NE 2 4 1 2 1023.9 1023.9 -
12/11:00pm 18.2 - - - - ENE 2 4 1 2 1024.1 1024.1 -

Latest Capital City Observations: Canberra | Sydney | Melbourne | Brisbane | Adelaide | Perth | Hobart | Darwin

Other formats

Comma delimited format used in spreadsheet applications
http://www.bom.gov.au/fwo/IDW60901/IDW60901.95605.axf

JavaScript Object Notation format (JSON) in row-major order
http://www.bom.gov.au/fwo/IDW60901/IDW60901.95605.json

Data quality

Most of these data are generated automatically and are frequently updated. Quality checks on data are not normally performed. It is possible for incorrect values to appear. Refer to information at About Latest Weather Observations and please check the disclaimer before using these data.